MMMA/MAM METAR and TAF weather

Enter ICAO airport designator
Station Type Date Time Source
MMMA METAR 2020/04/05 15:40 UTC NOAA

MMMA 051540Z 36009KT 5SM OVC005 17/17 A2999 RMK 8/7// HZ


Station Type Date Time Source
MMMA Decoded METAR 2020/04/05 15:40 UTC NOAA

Matamoros International , Mexico (MMMA) 25-46N 097-32W
Apr 05, 2020 - 11:40 AM EDT / 2020.04.05 1540 UTC
Wind: from the N (360 degrees) at 10 MPH (9 KT):0
Visibility: 5 mile(s):0
Sky conditions: overcast
Temperature: 62 F (17 C)
Dew Point: 62 F (17 C)
Relative Humidity: 100%
Pressure (altimeter): 29.99 in. Hg (1015 hPa)
ob: MMMA 051540Z 36009KT 5SM OVC005 17/17 A2999 RMK 8/7// HZ
cycle: 15

Station Type Date Time Source
MMMA TAF 2020/04/05 06:31 UTC NOAA

TAF MMMA 050523Z 0506/0606 02015KT 3SM DZ BR OVC005
TEMPO 0512/0516 1SM -DZ BR OVC003
FM051800 02012KT 5SM HZ BKN015 BKN040
FM060300 02010KT 3SM DZ BR OVC010

Example: see airport list